createdAt,value
2022-10-11T00:00:12.620Z,3.25
2022-10-11T00:02:39.356Z,4.50
2022-10-11T00:05:07.247Z,2.78
2022-10-11T00:07:34.394Z,3.22
2022-10-11T00:10:01.318Z,5.00
2022-10-11T00:12:28.072Z,3.28
2022-10-11T00:14:54.816Z,4.35
2022-10-11T00:17:21.623Z,2.70
2022-10-11T00:19:48.482Z,2.45
2022-10-11T00:22:15.372Z,2.20
2022-10-11T00:24:42.254Z,3.70
2022-10-11T00:27:10.086Z,3.25
2022-10-11T00:29:39.197Z,3.78
2022-10-11T00:32:06.472Z,2.88
2022-10-11T00:34:33.249Z,2.55
2022-10-11T00:37:00.447Z,2.80
2022-10-11T00:39:27.327Z,2.92
2022-10-11T00:41:54.722Z,2.35
2022-10-11T00:44:26.322Z,4.63
2022-10-11T00:47:05.037Z,4.60
2022-10-11T00:49:44.928Z,4.78
2022-10-11T00:52:37.430Z,2.60
2022-10-11T00:55:16.276Z,2.70
2022-10-11T00:57:48.419Z,3.75
2022-10-11T01:00:16.680Z,3.33
2022-10-11T01:02:43.723Z,6.25
2022-10-11T01:05:29.298Z,6.50
2022-10-11T01:08:00.058Z,3.45
2022-10-11T01:10:28.305Z,6.13
2022-10-11T01:13:09.024Z,2.80
2022-10-11T01:16:21.346Z,3.38
2022-10-11T01:19:40.272Z,4.38
2022-10-11T01:22:56.535Z,3.95
2022-10-11T01:25:53.808Z,6.28
2022-10-11T01:28:27.868Z,2.75
2022-10-11T01:31:04.476Z,3.13
2022-10-11T01:33:51.883Z,6.38
2022-10-11T01:36:49.961Z,4.00
2022-10-11T01:39:31.448Z,7.32
2022-10-11T01:42:05.655Z,2.30
2022-10-11T01:44:37.439Z,5.97
2022-10-11T01:47:04.498Z,4.28
2022-10-11T01:49:31.534Z,4.13
2022-10-11T01:52:05.294Z,3.90
2022-10-11T01:55:39.312Z,5.68
2022-10-11T01:58:37.622Z,3.80
2022-10-11T02:01:46.729Z,3.78
2022-10-11T02:04:27.206Z,5.53
2022-10-11T02:07:21.421Z,9.27
2022-10-11T02:10:05.188Z,4.72
2022-10-11T02:12:40.181Z,5.70
2022-10-11T02:15:11.604Z,5.03
2022-10-11T02:17:49.461Z,3.38
2022-10-11T02:20:22.872Z,6.60
2022-10-11T02:22:56.521Z,3.30
2022-10-11T02:25:27.398Z,5.97
2022-10-11T02:28:00.923Z,5.72
2022-10-11T02:30:30.574Z,4.88
2022-10-11T02:33:00.329Z,3.88
2022-10-11T02:35:30.780Z,4.72
2022-10-11T02:38:26.165Z,3.05
2022-10-11T02:41:08.046Z,4.65
2022-10-11T02:43:46.638Z,4.80
2022-10-11T02:46:17.665Z,5.38
2022-10-11T02:48:44.730Z,3.13
2022-10-11T02:51:14.617Z,7.50
2022-10-11T02:53:41.372Z,4.75
2022-10-11T02:56:08.472Z,6.05
2022-10-11T02:58:36.529Z,6.70
2022-10-11T03:01:03.455Z,5.10
2022-10-11T03:03:30.360Z,5.90
2022-10-11T03:06:02.977Z,5.78
2022-10-11T03:08:30.301Z,7.70
2022-10-11T03:10:57.246Z,5.00
2022-10-11T03:13:24.188Z,4.25
2022-10-11T03:16:02.844Z,3.75
2022-10-11T03:18:31.150Z,6.22
2022-10-11T03:20:58.049Z,5.43
2022-10-11T03:23:24.825Z,6.38
2022-10-11T03:25:52.046Z,4.90
2022-10-11T03:28:19.621Z,6.45
2022-10-11T03:30:51.336Z,4.10
2022-10-11T03:33:18.778Z,3.45
2022-10-11T03:35:47.466Z,4.70
2022-10-11T03:38:18.574Z,3.50
2022-10-11T03:40:45.520Z,3.97
2022-10-11T03:43:12.482Z,4.75
2022-10-11T03:45:39.613Z,6.25
2022-10-11T03:48:06.841Z,4.75
2022-10-11T03:50:34.111Z,6.90
2022-10-11T03:53:01.035Z,4.18
2022-10-11T03:55:27.765Z,5.47
2022-10-11T03:57:54.500Z,5.20
2022-10-11T04:00:21.369Z,9.95
2022-10-11T04:02:48.114Z,5.70
2022-10-11T04:05:14.993Z,6.40
2022-10-11T04:07:41.877Z,5.57
2022-10-11T04:10:08.934Z,4.75
2022-10-11T04:12:39.249Z,5.57
2022-10-11T04:15:07.795Z,5.38
2022-10-11T04:17:34.671Z,7.60
2022-10-11T04:20:01.966Z,6.80
2022-10-11T04:22:28.738Z,4.70
2022-10-11T04:24:55.530Z,5.07
2022-10-11T04:27:22.333Z,4.65
2022-10-11T04:29:49.076Z,5.13
2022-10-11T04:32:15.814Z,6.90
2022-10-11T04:34:42.620Z,5.65
2022-10-11T04:37:09.372Z,5.38
2022-10-11T04:39:37.037Z,5.82
2022-10-11T04:42:04.675Z,4.75
2022-10-11T04:44:32.021Z,6.13
2022-10-11T04:46:58.874Z,6.55
2022-10-11T04:49:25.653Z,9.05
2022-10-11T04:51:52.743Z,4.38
2022-10-11T04:54:19.504Z,6.43
2022-10-11T04:56:46.773Z,5.45
2022-10-11T04:59:13.535Z,7.18
2022-10-11T05:01:40.342Z,5.38
2022-10-11T05:04:07.616Z,7.18
2022-10-11T05:06:34.461Z,9.02
2022-10-11T05:09:01.185Z,4.97
2022-10-11T05:11:28.242Z,6.97
2022-10-11T05:13:56.550Z,5.55
2022-10-11T05:16:23.753Z,4.70
2022-10-11T05:18:50.547Z,5.50
2022-10-11T05:21:22.388Z,4.85
2022-10-11T05:23:52.114Z,11.20
2022-10-11T05:26:20.707Z,4.70
2022-10-11T05:28:48.262Z,6.93
2022-10-11T05:31:16.594Z,7.93
2022-10-11T05:33:43.870Z,4.45
2022-10-11T05:36:11.756Z,5.72
2022-10-11T05:38:39.267Z,5.45
2022-10-11T05:41:09.189Z,4.95
2022-10-11T05:43:36.278Z,5.82
2022-10-11T05:46:03.893Z,7.22
2022-10-11T05:48:30.898Z,5.13
2022-10-11T05:51:05.289Z,7.32
2022-10-11T05:53:32.995Z,5.20
2022-10-11T05:56:00.235Z,5.07
2022-10-11T05:58:27.862Z,5.25
2022-10-11T06:00:56.765Z,6.32
2022-10-11T06:03:24.027Z,7.10
2022-10-11T06:05:55.824Z,4.68
2022-10-11T06:08:23.659Z,6.20
2022-10-11T06:10:50.368Z,4.70
2022-10-11T06:13:17.137Z,5.13
2022-10-11T06:15:43.899Z,5.88
2022-10-11T06:18:10.671Z,5.68
2022-10-11T06:20:37.395Z,7.35
2022-10-11T06:23:04.145Z,5.70
2022-10-11T06:25:31.083Z,6.68
2022-10-11T06:27:57.837Z,6.38
2022-10-11T06:30:24.604Z,7.35
2022-10-11T06:32:51.421Z,4.22
2022-10-11T06:35:18.165Z,5.47
2022-10-11T06:37:44.881Z,8.10
2022-10-11T06:40:12.386Z,6.15
2022-10-11T06:42:39.224Z,6.28
2022-10-11T06:45:06.884Z,9.48
2022-10-11T06:47:33.617Z,8.00
2022-10-11T06:50:00.311Z,6.63
2022-10-11T06:52:27.085Z,7.55
2022-10-11T06:54:53.890Z,6.00
2022-10-11T06:57:20.631Z,7.72
2022-10-11T06:59:47.498Z,9.07
2022-10-11T07:02:14.745Z,8.82
2022-10-11T07:04:41.644Z,7.50
2022-10-11T07:07:08.414Z,8.15
2022-10-11T07:09:35.294Z,6.15
2022-10-11T07:12:02.021Z,5.90
2022-10-11T07:14:28.779Z,7.63
2022-10-11T07:16:55.567Z,5.20
2022-10-11T07:19:22.310Z,6.35
2022-10-11T07:21:49.177Z,5.47
2022-10-11T07:24:15.931Z,6.10
2022-10-11T07:26:42.781Z,4.90
2022-10-11T07:29:11.233Z,5.75
2022-10-11T07:31:41.581Z,5.47
2022-10-11T07:34:08.936Z,5.07
2022-10-11T07:36:36.625Z,6.82
2022-10-11T07:39:08.266Z,7.07
2022-10-11T07:41:38.114Z,9.10
2022-10-11T07:44:06.641Z,6.35
2022-10-11T07:46:33.413Z,9.63
2022-10-11T07:49:00.285Z,6.13
2022-10-11T07:51:27.293Z,6.68
2022-10-11T07:53:56.729Z,7.07
2022-10-11T07:56:27.997Z,4.22
2022-10-11T07:58:58.321Z,6.30
2022-10-11T08:01:27.496Z,10.10
2022-10-11T08:03:54.563Z,5.13
2022-10-11T08:06:27.676Z,6.68
2022-10-11T08:08:54.719Z,5.93
2022-10-11T08:11:34.606Z,8.13
2022-10-11T08:14:03.613Z,8.45
2022-10-11T08:16:30.316Z,5.18
2022-10-11T08:18:57.418Z,5.57
2022-10-11T08:21:26.664Z,6.78
2022-10-11T08:23:53.413Z,5.18
2022-10-11T08:26:20.182Z,6.18
2022-10-11T08:28:47.107Z,6.45
2022-10-11T08:31:16.030Z,7.93
2022-10-11T08:33:44.313Z,4.72
2022-10-11T08:36:12.597Z,6.65
2022-10-11T08:38:40.443Z,8.35
2022-10-11T08:41:38.262Z,4.82
2022-10-11T08:44:58.172Z,7.40
2022-10-11T08:47:44.825Z,6.93
2022-10-11T08:50:20.964Z,7.10
2022-10-11T08:52:57.764Z,6.18
2022-10-11T08:55:44.172Z,8.63
2022-10-11T08:58:25.476Z,6.60
2022-10-11T09:00:56.453Z,6.95
2022-10-11T09:03:44.426Z,4.95
2022-10-11T09:06:32.052Z,5.28
2022-10-11T09:09:48.264Z,4.03
2022-10-11T09:12:31.828Z,5.40
2022-10-11T09:15:39.251Z,3.47
2022-10-11T09:18:32.975Z,4.13
2022-10-11T09:21:37.467Z,4.68
2022-10-11T09:24:59.253Z,7.95
2022-10-11T09:28:02.212Z,4.00
2022-10-11T09:30:30.190Z,6.80
2022-10-11T09:33:20.455Z,5.60
2022-10-11T09:35:52.319Z,5.22
2022-10-11T09:38:41.117Z,7.25
2022-10-11T09:41:36.611Z,6.43
2022-10-11T09:44:06.467Z,4.43
2022-10-11T09:46:41.443Z,5.85
2022-10-11T09:49:14.631Z,5.30
2022-10-11T09:51:53.866Z,5.88
2022-10-11T09:54:43.725Z,5.30
2022-10-11T09:57:20.905Z,5.75
2022-10-11T10:00:33.649Z,5.10
2022-10-11T10:03:04.562Z,8.82
2022-10-11T10:05:37.017Z,6.70
2022-10-11T10:08:23.108Z,4.63
2022-10-11T10:11:07.220Z,8.05
2022-10-11T10:13:44.061Z,5.57
2022-10-11T10:16:27.004Z,8.30
2022-10-11T10:19:02.469Z,6.75
2022-10-11T10:21:38.475Z,4.50
2022-10-11T10:24:31.346Z,6.78
2022-10-11T10:27:06.148Z,5.85
2022-10-11T10:29:33.135Z,8.05
2022-10-11T10:32:28.100Z,7.18
2022-10-11T10:35:14.975Z,6.05
2022-10-11T10:38:01.094Z,3.88
2022-10-11T10:40:46.959Z,4.80
2022-10-11T10:43:21.645Z,5.30
2022-10-11T10:46:25.499Z,6.30
2022-10-11T10:49:53.612Z,5.97
2022-10-11T10:52:47.760Z,5.05
2022-10-11T10:55:41.810Z,5.15
2022-10-11T10:59:03.131Z,4.93
2022-10-11T11:01:38.715Z,4.38
2022-10-11T11:04:33.953Z,5.90
2022-10-11T11:07:44.147Z,5.43
2022-10-11T11:10:21.177Z,4.82
2022-10-11T11:13:25.119Z,9.07
2022-10-11T11:16:16.136Z,4.33
2022-10-11T11:19:01.409Z,5.97
2022-10-11T11:22:00.790Z,5.07
2022-10-11T11:24:50.389Z,5.70
2022-10-11T11:27:29.372Z,6.22
2022-10-11T11:30:41.107Z,4.45
2022-10-11T11:33:38.804Z,6.72
2022-10-11T11:36:14.459Z,5.22
2022-10-11T11:38:55.466Z,4.45
2022-10-11T11:41:45.090Z,3.75
2022-10-11T11:44:27.562Z,3.83
2022-10-11T11:47:17.818Z,5.15
2022-10-11T11:50:22.470Z,3.83
2022-10-11T11:53:18.751Z,4.53
2022-10-11T11:56:07.312Z,3.53
2022-10-11T11:59:03.134Z,4.43
2022-10-11T12:01:43.151Z,4.95
2022-10-11T12:04:26.830Z,5.82
2022-10-11T12:07:17.527Z,5.93
2022-10-11T12:09:51.423Z,4.47
2022-10-11T12:12:37.622Z,4.43
2022-10-11T12:15:12.845Z,5.53
2022-10-11T12:17:57.741Z,5.78
2022-10-11T12:20:28.707Z,5.50
2022-10-11T12:23:05.328Z,4.75
2022-10-11T12:25:40.821Z,7.32
2022-10-11T12:28:41.997Z,4.07
2022-10-11T12:31:42.434Z,5.13
2022-10-11T12:34:33.571Z,3.42
2022-10-11T12:37:20.414Z,3.47
2022-10-11T12:39:58.222Z,4.72
2022-10-11T12:42:35.686Z,3.67
2022-10-11T12:45:12.075Z,5.80
2022-10-11T12:48:16.920Z,5.10
2022-10-11T12:51:24.555Z,4.05
2022-10-11T12:54:37.294Z,3.33
2022-10-11T12:57:55.902Z,4.20
2022-10-11T13:01:03.527Z,3.15
2022-10-11T13:03:57.078Z,6.05
2022-10-11T13:06:32.129Z,4.77
2022-10-11T13:09:11.450Z,4.78
2022-10-11T13:11:56.025Z,3.47
2022-10-11T13:14:26.898Z,3.70
2022-10-11T13:17:03.446Z,3.35
2022-10-11T13:19:34.028Z,5.22
2022-10-11T13:22:15.820Z,4.47
2022-10-11T13:24:42.623Z,4.22
2022-10-11T13:27:22.874Z,6.95
2022-10-11T13:29:54.066Z,5.80
2022-10-11T13:32:26.314Z,3.20
2022-10-11T13:35:00.992Z,3.35
2022-10-11T13:37:29.853Z,4.32
2022-10-11T13:39:57.644Z,7.10
2022-10-11T13:42:31.894Z,4.65
2022-10-11T13:45:00.471Z,3.88
2022-10-11T13:47:31.932Z,4.72
2022-10-11T13:50:32.032Z,3.92
2022-10-11T13:53:09.394Z,4.40
2022-10-11T13:55:41.962Z,2.15
2022-10-11T13:58:30.090Z,5.50
2022-10-11T14:01:01.576Z,3.88
2022-10-11T14:03:44.288Z,4.18
2022-10-11T14:06:11.293Z,5.00
2022-10-11T14:08:42.434Z,3.60
2022-10-11T14:11:12.908Z,4.28
2022-10-11T14:13:45.399Z,3.38
2022-10-11T14:16:16.269Z,3.67
2022-10-11T14:19:02.130Z,5.63
2022-10-11T14:21:45.966Z,3.25
2022-10-11T14:24:13.670Z,4.00
2022-10-11T14:26:44.073Z,2.63
2022-10-11T14:29:34.429Z,3.67
2022-10-11T14:32:29.278Z,5.05
2022-10-11T14:34:56.656Z,3.13
2022-10-11T14:37:24.352Z,3.92
2022-10-11T14:39:52.378Z,5.65
2022-10-11T14:42:19.315Z,4.60
2022-10-11T14:44:46.051Z,3.58
2022-10-11T14:47:17.245Z,4.88
2022-10-11T14:49:44.483Z,3.85
2022-10-11T14:52:13.269Z,5.03
2022-10-11T14:54:40.829Z,3.40
2022-10-11T14:57:07.606Z,3.88
2022-10-11T14:59:38.469Z,3.35
2022-10-11T15:02:08.297Z,4.47
2022-10-11T15:04:35.283Z,3.08
2022-10-11T15:07:02.238Z,2.95
2022-10-11T15:09:30.823Z,2.78
2022-10-11T15:11:58.227Z,4.80
2022-10-11T15:14:26.045Z,3.63
2022-10-11T15:16:53.530Z,4.93
2022-10-11T15:19:24.357Z,3.10
2022-10-11T15:21:51.774Z,4.35
2022-10-11T15:24:20.449Z,5.57
2022-10-11T15:26:49.256Z,3.15
2022-10-11T15:29:17.881Z,3.80
2022-10-11T15:31:46.169Z,5.30
2022-10-11T15:34:12.982Z,5.75
2022-10-11T15:36:39.891Z,5.38
2022-10-11T15:39:27.767Z,4.13
2022-10-11T15:41:54.833Z,5.82
2022-10-11T15:44:21.599Z,3.50
2022-10-11T15:46:48.578Z,3.97
2022-10-11T15:49:18.112Z,5.65
2022-10-11T15:51:44.843Z,4.32
2022-10-11T15:54:11.630Z,4.57
2022-10-11T15:56:38.596Z,5.28
2022-10-11T15:59:05.414Z,4.63
2022-10-11T16:01:32.233Z,3.60
2022-10-11T16:03:59.003Z,3.35
2022-10-11T16:06:25.746Z,5.13
2022-10-11T16:08:52.704Z,4.57
2022-10-11T16:11:19.417Z,8.82
2022-10-11T16:13:46.157Z,7.22
2022-10-11T16:16:13.001Z,6.20
2022-10-11T16:18:40.341Z,9.20
2022-10-11T16:21:10.590Z,5.45
2022-10-11T16:23:38.750Z,4.88
2022-10-11T16:26:11.184Z,4.63
2022-10-11T16:28:38.409Z,6.20
2022-10-11T16:31:18.539Z,6.22
2022-10-11T16:33:46.250Z,7.57
2022-10-11T16:36:40.167Z,5.53
2022-10-11T16:39:16.903Z,5.28
2022-10-11T16:41:44.644Z,4.60
2022-10-11T16:44:18.210Z,8.32
2022-10-11T16:46:49.639Z,5.72
2022-10-11T16:49:19.254Z,5.88
2022-10-11T16:51:46.591Z,7.25
2022-10-11T16:54:20.237Z,6.03
2022-10-11T16:56:49.624Z,5.80
2022-10-11T16:59:17.286Z,4.82
2022-10-11T17:01:45.150Z,6.20
2022-10-11T17:04:13.031Z,8.70
2022-10-11T17:06:41.421Z,9.00
2022-10-11T17:09:08.157Z,4.72
2022-10-11T17:11:34.906Z,4.13
2022-10-11T17:14:02.224Z,6.28
2022-10-11T17:16:29.174Z,7.55
2022-10-11T17:18:55.934Z,6.38
2022-10-11T17:21:23.561Z,4.68
2022-10-11T17:23:50.668Z,7.03
2022-10-11T17:26:26.276Z,8.73
2022-10-11T17:28:59.436Z,5.03
2022-10-11T17:31:28.521Z,6.40
2022-10-11T17:34:01.634Z,5.07
2022-10-11T17:36:34.806Z,5.15
2022-10-11T17:39:07.032Z,5.30
2022-10-11T17:41:34.269Z,6.47
2022-10-11T17:44:03.053Z,9.07
2022-10-11T17:46:33.507Z,6.47
2022-10-11T17:49:04.787Z,5.88
2022-10-11T17:51:32.624Z,7.47
2022-10-11T17:53:59.383Z,6.75
2022-10-11T17:56:30.522Z,8.75
2022-10-11T17:58:59.731Z,7.13
2022-10-11T18:01:31.002Z,6.57
2022-10-11T18:04:04.378Z,6.43
2022-10-11T18:06:38.156Z,5.93
2022-10-11T18:09:05.577Z,6.47
2022-10-11T18:11:32.834Z,8.52
2022-10-11T18:14:00.408Z,8.43
2022-10-11T18:16:30.345Z,6.72
2022-10-11T18:18:58.770Z,7.55
2022-10-11T18:21:31.196Z,9.50
2022-10-11T18:24:10.776Z,8.85
2022-10-11T18:26:38.288Z,8.50
2022-10-11T18:29:05.500Z,9.18
2022-10-11T18:31:34.997Z,11.88
2022-10-11T18:34:04.174Z,7.88
2022-10-11T18:36:32.692Z,9.85
2022-10-11T18:39:05.397Z,9.60
2022-10-11T18:41:34.018Z,10.95
2022-10-11T18:44:05.095Z,11.10
2022-10-11T18:46:32.113Z,12.63
2022-10-11T18:49:02.125Z,14.93
2022-10-11T18:51:33.596Z,14.57
2022-10-11T18:54:01.219Z,13.77
2022-10-11T18:56:30.681Z,14.90
2022-10-11T18:58:59.241Z,14.50
2022-10-11T19:01:45.145Z,19.02
2022-10-11T19:04:16.060Z,11.65
2022-10-11T19:06:49.679Z,12.45
2022-10-11T19:09:23.388Z,13.95
2022-10-11T19:11:55.909Z,13.15
2022-10-11T19:14:27.279Z,16.83
2022-10-11T19:16:55.209Z,14.70
2022-10-11T19:19:27.265Z,14.27
2022-10-11T19:21:54.415Z,16.95
2022-10-11T19:24:26.679Z,14.90
2022-10-11T19:26:59.699Z,12.38
2022-10-11T19:29:29.774Z,14.00
2022-10-11T19:31:59.450Z,14.27
2022-10-11T19:34:28.108Z,15.95
2022-10-11T19:36:56.515Z,14.98
2022-10-11T19:39:25.083Z,14.23
2022-10-11T19:41:52.297Z,14.85
2022-10-11T19:44:19.647Z,15.07
2022-10-11T19:46:53.658Z,15.40
2022-10-11T19:49:25.705Z,17.42
2022-10-11T19:51:53.772Z,16.48
2022-10-11T19:54:20.803Z,18.15
2022-10-11T19:56:48.261Z,14.02
2022-10-11T19:59:15.761Z,18.33
2022-10-11T20:01:44.679Z,17.02
2022-10-11T20:04:33.237Z,17.60
2022-10-11T20:07:01.674Z,16.23
2022-10-11T20:09:29.861Z,21.02
2022-10-11T20:11:57.192Z,18.00
2022-10-11T20:14:24.487Z,19.70
2022-10-11T20:16:51.564Z,18.42
2022-10-11T20:19:18.841Z,18.98
2022-10-11T20:21:45.773Z,18.67
2022-10-11T20:24:13.092Z,19.60
2022-10-11T20:26:40.213Z,16.17
2022-10-11T20:29:07.408Z,14.57
2022-10-11T20:31:38.451Z,16.08
2022-10-11T20:34:07.118Z,16.27
2022-10-11T20:36:36.377Z,17.02
2022-10-11T20:39:04.495Z,18.42
2022-10-11T20:41:39.741Z,21.25
2022-10-11T20:44:07.698Z,17.15
2022-10-11T20:46:37.954Z,20.23
2022-10-11T20:49:09.248Z,19.15
2022-10-11T20:51:38.816Z,17.88
2022-10-11T20:54:06.118Z,16.20
2022-10-11T20:56:33.892Z,15.73
2022-10-11T20:59:00.683Z,14.73
2022-10-11T21:01:34.535Z,17.20
2022-10-11T21:06:31.697Z,12.68
2022-10-11T21:08:59.836Z,14.07
2022-10-11T21:11:28.741Z,15.65
2022-10-11T21:14:01.694Z,16.73
2022-10-11T21:16:29.129Z,17.30
2022-10-11T21:18:58.719Z,15.35
2022-10-11T21:21:26.943Z,14.48
2022-10-11T21:23:55.707Z,16.65
2022-10-11T21:26:22.466Z,16.80
2022-10-11T21:28:49.424Z,15.23
2022-10-11T21:31:19.725Z,17.02
2022-10-11T21:33:46.900Z,18.08
2022-10-11T21:36:18.109Z,19.42
2022-10-11T21:38:45.373Z,12.98
2022-10-11T21:41:25.499Z,15.93
2022-10-11T21:43:53.226Z,13.88
2022-10-11T21:46:54.045Z,16.67
2022-10-11T21:49:17.475Z,14.80
2022-10-11T21:51:44.776Z,17.05
2022-10-11T21:54:11.704Z,17.20
2022-10-11T21:56:38.519Z,17.55
2022-10-11T21:59:07.961Z,17.77
2022-10-11T22:01:38.488Z,15.90
2022-10-11T22:04:07.527Z,13.70
2022-10-11T22:06:35.204Z,12.88
2022-10-11T22:09:03.794Z,14.65
2022-10-11T22:11:31.275Z,20.03
2022-10-11T22:13:58.502Z,19.38
2022-10-11T22:16:25.243Z,15.55
2022-10-11T22:18:54.001Z,18.20
2022-10-11T22:21:23.608Z,17.17
2022-10-11T22:23:53.420Z,16.63
2022-10-11T22:26:25.426Z,16.80
2022-10-11T22:28:53.590Z,16.33
2022-10-11T22:31:21.944Z,17.13
2022-10-11T22:33:53.084Z,17.10
2022-10-11T22:36:19.875Z,17.00
2022-10-11T22:38:47.269Z,16.13
2022-10-11T22:41:14.163Z,17.75
2022-10-11T22:43:41.020Z,17.65
2022-10-11T22:46:08.095Z,15.50
2022-10-11T22:48:35.531Z,13.52
2022-10-11T22:51:02.815Z,14.30
2022-10-11T22:53:30.397Z,15.98
2022-10-11T22:55:57.271Z,13.45
2022-10-11T22:58:24.307Z,12.07
2022-10-11T23:00:51.108Z,17.00
2022-10-11T23:03:18.975Z,14.45
2022-10-11T23:05:56.534Z,12.80
2022-10-11T23:08:23.513Z,16.13
2022-10-11T23:10:50.421Z,13.45
2022-10-11T23:13:17.709Z,18.75
2022-10-11T23:15:44.418Z,11.55
2022-10-11T23:18:11.485Z,15.18
2022-10-11T23:20:39.586Z,16.58
2022-10-11T23:23:07.281Z,14.02
2022-10-11T23:25:34.162Z,14.80
2022-10-11T23:28:01.604Z,12.63
2022-10-11T23:30:29.789Z,13.95
2022-10-11T23:32:56.603Z,13.68
2022-10-11T23:35:23.386Z,13.35
2022-10-11T23:37:50.173Z,12.45
2022-10-11T23:40:16.995Z,15.82
2022-10-11T23:42:43.747Z,12.65
2022-10-11T23:45:10.679Z,14.13
2022-10-11T23:47:37.674Z,13.32
2022-10-11T23:50:05.307Z,16.27
2022-10-11T23:52:32.648Z,15.27
2022-10-11T23:54:59.386Z,15.48
2022-10-11T23:57:26.086Z,12.55
2022-10-11T23:59:52.793Z,13.70
